This is the latest recevied weather packets stored in our database for station/object IU8HRV-10. If no packets are shown the sender has not sent any weather packets the latest 10 day(s).
| Time | Temp. | Humidity | Pressure | Rain* | Wind** | Luminosity | Snow |
|---|---|---|---|---|---|---|---|
| 1777883773 | 21.11° C | 40% | 1021 hPa | - | - | - | - |
| 1777882872 | 21.67° C | 39% | 1021 hPa | - | - | - | - |
| 1777881971 | 21.11° C | 39% | 1021 hPa | - | - | - | - |
| 1777881070 | 21.11° C | 38% | 1021 hPa | - | - | - | - |
| 1777880169 | 20.56° C | 38% | 1021 hPa | - | - | - | - |
| 1777879268 | 20° C | 39% | 1021 hPa | - | - | - | - |
| 1777878366 | 20.56° C | 37% | 1021 hPa | - | - | - | - |
| 1777877465 | 20.56° C | 38% | 1021 hPa | - | - | - | - |
| 1777876564 | 20° C | 39% | 1021 hPa | - | - | - | - |
| 1777875663 | 18.33° C | 41% | 1021 hPa | - | - | - | - |
| 1777874761 | 17.78° C | 41% | 1020 hPa | - | - | - | - |
| 1777873860 | 17.22° C | 42% | 1020 hPa | - | - | - | - |
| 1777872959 | 16.11° C | 44% | 1020 hPa | - | - | - | - |
| 1777872058 | 16.11° C | 44% | 1020 hPa | - | - | - | - |
| 1777871157 | 16.11° C | 45% | 1020 hPa | - | - | - | - |
| 1777870256 | 15.56° C | 46% | 1020 hPa | - | - | - | - |
| 1777869355 | 15.56° C | 46% | 1020 hPa | - | - | - | - |
| 1777868454 | 15.56° C | 46% | 1020 hPa | - | - | - | - |
| 1777867553 | 15.56° C | 46% | 1020 hPa | - | - | - | - |
| 1777866652 | 15.56° C | 46% | 1020 hPa | - | - | - | - |
| 1777865751 | 15.56° C | 46% | 1020 hPa | - | - | - | - |
| 1777864850 | 16.11° C | 46% | 1020 hPa | - | - | - | - |
| 1777863949 | 16.11° C | 46% | 1020 hPa | - | - | - | - |
| 1777863048 | 16.11° C | 45% | 1020 hPa | - | - | - | - |
| 1777844124 | 22.22° C | 36% | 1020 hPa | - | - | - | - |
* Rain since midnight (hover to see other rain measurements)
** Current wind speed in m/s (hover to see current wind gust speed)